Time;durP1;ratioP1;P1;durP2;ratioP2;P2;SDS_P1;SDS_P2;PMS_P1;PMS_P2;Temp;Humidity;BMP_temperature;BMP_pressure;BME280_temperature;BME280_humidity;BME280_pressure;Samples;Min_cycle;Max_cycle;Signal;HPM_P1;HPM_P2
2022/12/05 00:01:34;;;;;;;29.85;16.85;;;;;;;0.18;90.92;101254.00;1860026;77;27470;-56
2022/12/05 00:04:07;;;;;;;29.50;16.93;;;;;;;0.18;90.87;101251.86;1859949;76;25883;-54
2022/12/05 00:06:39;;;;;;;30.60;17.87;;;;;;;0.15;90.88;101253.13;1860067;76;25580;-53
2022/12/05 00:09:19;;;;;;;31.73;17.48;;;;;;;0.19;90.84;101250.84;1905578;74;34666;-56
2022/12/05 00:11:48;;;;;;;31.65;18.07;;;;;;;0.09;90.90;101247.32;1860020;77;25556;-55
2022/12/05 00:14:19;;;;;;;28.75;17.73;;;;;;;0.08;90.98;101248.86;1860062;77;28239;-57
2022/12/05 00:16:48;;;;;;;29.30;17.55;;;;;;;0.07;91.01;101243.23;1859968;77;25426;-54
2022/12/05 00:19:19;;;;;;;29.18;17.15;;;;;;;0.06;91.03;101242.95;1860153;76;25507;-52
2022/12/05 00:21:48;;;;;;;28.97;16.97;;;;;;;0.07;91.08;101251.21;1860382;77;25551;-53
2022/12/05 00:24:19;;;;;;;28.27;16.45;;;;;;;0.06;91.15;101250.41;1860115;76;25433;-56
2022/12/05 00:26:57;;;;;;;30.27;17.35;;;;;;;0.07;91.07;101248.06;1860092;77;25671;-56
2022/12/05 00:29:23;;;;;;;30.08;17.23;;;;;;;0.08;91.04;101255.52;1859923;76;25430;-57
2022/12/05 00:31:53;;;;;;;32.88;18.27;;;;;;;0.06;91.03;101254.39;1860075;77;25863;-53
2022/12/05 00:34:21;;;;;;;28.85;17.25;;;;;;;0.06;91.02;101259.72;1860010;76;25434;-56
2022/12/05 00:36:54;;;;;;;32.88;19.05;;;;;;;0.06;91.08;101254.39;1860029;77;25429;-54
2022/12/05 00:39:27;;;;;;;31.65;16.80;;;;;;;0.06;91.09;101250.93;1859928;76;27531;-54
2022/12/05 00:41:56;;;;;;;30.23;17.98;;;;;;;0.06;91.15;101247.75;1859848;76;25359;-53
2022/12/05 00:45:55;;;;;;;28.27;17.62;;;;;;;0.13;91.18;101247.70;1905713;74;34688;-57
2022/12/05 00:48:26;;;;;;;30.62;18.55;;;;;;;0.05;91.09;101242.14;1789989;80;25567;-54
2022/12/05 00:51:31;;;;;;;28.40;17.02;;;;;;;0.13;91.19;101255.69;1868455;76;34711;-54
2022/12/05 00:54:03;;;;;;;33.90;18.00;;;;;;;0.05;91.10;101250.62;1823588;78;25648;-56
2022/12/05 00:56:36;;;;;;;30.82;18.10;;;;;;;0.06;91.18;101250.93;1824282;78;27470;-54
2022/12/05 00:59:11;;;;;;;33.35;19.10;;;;;;;0.04;91.03;101249.81;1824544;78;25958;-54
2022/12/05 01:01:45;;;;;;;27.67;17.05;;;;;;;0.02;90.83;101251.88;1824198;78;25615;-56
2022/12/05 01:04:23;;;;;;;29.80;17.98;;;;;;;-0.01;90.81;101246.45;1824513;78;25587;-58
2022/12/05 01:06:55;;;;;;;30.62;18.05;;;;;;;-0.01;90.91;101255.77;1824634;78;25530;-56
2022/12/05 01:09:28;;;;;;;27.67;17.82;;;;;;;0.01;90.94;101267.53;1792198;79;27488;-57
2022/12/05 01:11:56;;;;;;;34.33;19.10;;;;;;;-0.02;90.79;101256.81;1792145;80;25606;-54
2022/12/05 01:14:27;;;;;;;32.78;18.87;;;;;;;-0.04;90.85;101256.19;1792199;80;25633;-55
2022/12/05 01:16:59;;;;;;;30.43;17.70;;;;;;;-0.05;90.96;101255.91;1792026;80;25556;-58
2022/12/05 01:19:32;;;;;;;33.53;18.45;;;;;;;-0.02;90.93;101244.84;1791965;79;25832;-58
2022/12/05 01:22:00;;;;;;;33.25;19.30;;;;;;;-0.02;90.95;101228.05;1791731;80;27396;-52
2022/12/05 01:24:30;;;;;;;30.12;16.93;;;;;;;-0.02;90.90;101234.70;1791864;80;27261;-53
2022/12/05 01:27:03;;;;;;;30.37;17.57;;;;;;;-0.02;90.91;101227.56;1723982;81;25801;-52
2022/12/05 01:29:30;;;;;;;32.45;17.87;;;;;;;-0.03;90.81;101229.91;1729005;82;25701;-54
2022/12/05 01:31:59;;;;;;;27.20;17.35;;;;;;;-0.05;90.67;101228.48;1729792;82;25413;-54
2022/12/05 01:35:35;;;;;;;29.82;18.27;;;;;;;0.01;90.67;101236.94;1905710;74;34609;-52
2022/12/05 01:38:07;;;;;;;30.72;18.30;;;;;;;-0.06;90.78;101229.52;1858652;75;26045;-53
2022/12/05 01:40:36;;;;;;;31.15;19.23;;;;;;;-0.04;90.90;101226.13;1860009;77;27683;-57
2022/12/05 01:43:11;;;;;;;33.95;18.80;;;;;;;-0.02;90.95;101226.23;1860328;77;25547;-57
2022/12/05 01:45:47;;;;;;;29.42;17.62;;;;;;;0.00;90.89;101220.70;1855609;76;25563;-56
2022/12/05 01:48:25;;;;;;;29.42;17.60;;;;;;;0.01;90.79;101209.53;1835250;75;26021;-55
2022/12/05 01:51:01;;;;;;;28.20;17.40;;;;;;;0.01;90.67;101214.84;1821373;78;25373;-56
2022/12/05 01:53:33;;;;;;;30.95;17.65;;;;;;;-0.02;90.53;101208.94;1821310;78;28059;-54
2022/12/05 01:56:07;;;;;;;30.60;17.70;;;;;;;-0.04;90.50;101204.84;1821330;78;25777;-55
2022/12/05 01:58:37;;;;;;;28.77;17.52;;;;;;;-0.05;90.64;101202.72;1821263;78;25588;-56
2022/12/05 02:01:05;;;;;;;31.73;19.07;;;;;;;-0.06;90.66;101193.09;1821408;78;25393;-57
2022/12/05 02:03:40;;;;;;;29.23;17.62;;;;;;;-0.03;90.72;101206.48;1821100;78;25506;-57
2022/12/05 02:06:13;;;;;;;28.00;17.25;;;;;;;-0.03;90.73;101203.30;1823389;78;27667;-57
2022/12/05 02:08:44;;;;;;;27.70;17.23;;;;;;;-0.02;90.64;101200.95;1823319;78;25678;-53
2022/12/05 02:11:15;;;;;;;29.32;18.10;;;;;;;-0.03;90.42;101207.30;1790960;80;25543;-56
2022/12/05 02:16:52;;;;;;;28.57;17.23;;;;;;;-0.05;90.45;101213.35;1707037;84;25655;-58
2022/12/05 02:20:30;;;;;;;28.23;16.62;;;;;;;-0.01;90.52;101205.23;1924488;74;34630;-52
2022/12/05 02:23:14;;;;;;;26.17;16.10;;;;;;;-0.07;90.52;101198.63;1891725;75;25531;-57
2022/12/05 02:26:01;;;;;;;29.50;17.15;;;;;;;-0.09;90.40;101196.70;1891037;75;28110;-57
2022/12/05 02:29:15;;;;;;;27.70;16.07;;;;;;;-0.12;90.39;101210.42;1886472;75;25347;-51
2022/12/05 02:31:51;;;;;;;25.90;17.02;;;;;;;-0.15;90.26;101196.22;1891476;75;25684;-55
2022/12/05 02:34:24;;;;;;;25.77;16.82;;;;;;;-0.18;90.39;101192.16;1894906;75;25509;-56
2022/12/05 02:37:10;;;;;;;24.75;16.40;;;;;;;-0.19;90.44;101191.85;1877431;75;25363;-54
2022/12/05 02:40:09;;;;;;;25.00;15.95;;;;;;;-0.18;90.57;101186.04;1822196;78;27645;-55
2022/12/05 02:43:03;;;;;;;24.43;15.05;;;;;;;-0.18;90.51;101201.99;1855827;77;25355;-53
2022/12/05 02:45:36;;;;;;;29.10;16.27;;;;;;;-0.21;90.46;101185.41;1822084;78;25506;-56
2022/12/05 02:48:13;;;;;;;27.27;17.00;;;;;;;-0.21;90.51;101185.41;1822166;78;25837;-55
2022/12/05 02:50:42;;;;;;;30.13;17.10;;;;;;;-0.20;90.61;101193.70;1855859;77;25492;-54
2022/12/05 02:53:13;;;;;;;27.10;16.25;;;;;;;-0.21;90.54;101184.09;1822120;78;27553;-54
2022/12/05 02:55:44;;;;;;;28.80;18.07;;;;;;;-0.22;90.57;101183.80;1822126;78;25532;-55
2022/12/05 02:58:18;;;;;;;27.37;16.67;;;;;;;-0.22;90.58;101173.69;1822073;78;25576;-52
2022/12/05 03:00:48;;;;;;;24.75;16.10;;;;;;;-0.20;90.68;101179.08;1822085;78;25443;-55
2022/12/05 03:03:18;;;;;;;28.12;17.50;;;;;;;-0.18;90.63;101176.20;1822135;78;25540;-56
2022/12/05 03:06:08;;;;;;;26.30;17.27;;;;;;;-0.18;90.56;101176.20;1822086;78;27592;-54
2022/12/05 03:08:40;;;;;;;26.37;16.73;;;;;;;-0.19;90.50;101177.22;1821231;78;26047;-54
2022/12/05 03:11:07;;;;;;;29.10;17.65;;;;;;;-0.20;90.51;101159.66;1821927;78;25391;-54
2022/12/05 03:13:42;;;;;;;28.10;17.10;;;;;;;-0.20;90.56;101162.32;1822061;78;25480;-55
2022/12/05 03:16:14;;;;;;;27.10;17.12;;;;;;;-0.20;90.58;101156.48;1821613;78;25412;-53
2022/12/05 03:18:48;;;;;;;28.20;17.48;;;;;;;-0.18;90.59;101145.63;1822458;78;28134;-55
2022/12/05 03:21:23;;;;;;;29.52;17.27;;;;;;;-0.20;90.50;101138.39;1826598;78;25934;-57
2022/12/05 03:24:02;;;;;;;29.55;17.98;;;;;;;-0.20;90.49;101134.39;1827996;78;25629;-53
2022/12/05 03:26:49;;;;;;;24.90;16.20;;;;;;;-0.22;90.49;101134.61;1827874;78;25496;-56
2022/12/05 03:29:51;;;;;;;25.30;16.12;;;;;;;-0.23;90.44;101125.52;1828162;78;25590;-54
2022/12/05 03:32:41;;;;;;;27.42;16.82;;;;;;;-0.25;90.42;101119.09;1826542;78;27560;-54
2022/12/05 03:35:36;;;;;;;24.80;15.83;;;;;;;-0.27;90.50;101120.34;1825893;78;25798;-54
2022/12/05 03:38:13;;;;;;;25.52;16.05;;;;;;;-0.29;90.59;101119.23;1827569;78;25422;-57
2022/12/05 03:40:53;;;;;;;27.13;16.95;;;;;;;-0.30;90.61;101114.94;1827585;78;25559;-57
2022/12/05 03:43:49;;;;;;;27.93;17.23;;;;;;;-0.33;90.56;101125.99;1827599;78;25546;-56
2022/12/05 03:46:26;;;;;;;28.32;16.62;;;;;;;-0.34;90.65;101128.37;1827600;78;27910;-57
2022/12/05 03:49:14;;;;;;;27.00;16.02;;;;;;;-0.34;90.71;101144.32;1827460;78;25668;-57
2022/12/05 03:51:54;;;;;;;24.40;15.23;;;;;;;-0.33;90.71;101136.62;1827579;78;25450;-57
2022/12/05 03:54:29;;;;;;;22.77;14.18;;;;;;;-0.33;90.69;101143.27;1826129;78;25546;-57
2022/12/05 03:57:06;;;;;;;25.97;16.32;;;;;;;-0.33;90.65;101149.92;1827574;78;25403;-56
2022/12/05 03:59:37;;;;;;;28.62;16.20;;;;;;;-0.33;90.68;101160.55;1826809;78;27484;-58
2022/12/05 04:02:09;;;;;;;26.52;15.60;;;;;;;-0.33;90.68;101164.54;1826694;78;25739;-58
2022/12/05 04:04:47;;;;;;;27.27;16.55;;;;;;;-0.32;90.72;101167.52;1827003;78;25569;-57
2022/12/05 04:07:16;;;;;;;23.25;14.68;;;;;;;-0.31;90.79;101174.44;1827494;78;25569;-56
2022/12/05 04:09:50;;;;;;;23.63;15.47;;;;;;;-0.28;90.81;101174.02;1827813;78;25406;-54
2022/12/05 04:12:24;;;;;;;26.50;15.80;;;;;;;-0.25;90.77;101180.77;1861400;77;29368;-57
2022/12/05 04:14:56;;;;;;;27.45;16.60;;;;;;;-0.24;90.63;101183.70;1827508;78;25657;-58
2022/12/05 04:17:58;;;;;;;26.33;15.90;;;;;;;-0.24;90.54;101177.89;1827576;78;25587;-55
2022/12/05 04:23:16;;;;;;;23.98;14.35;;;;;;;-0.23;90.46;101175.52;1821516;78;25564;-57
2022/12/05 04:26:20;;;;;;;25.32;15.00;;;;;;;-0.22;90.42;101169.18;1855011;77;27460;-58
2022/12/05 04:28:52;;;;;;;22.35;14.38;;;;;;;-0.21;90.42;101172.64;1821395;78;25662;-57
2022/12/05 04:31:27;;;;;;;22.58;15.00;;;;;;;-0.20;90.26;101156.48;1854183;77;25355;-55
2022/12/05 04:34:08;;;;;;;24.00;14.75;;;;;;;-0.22;90.15;101159.88;1821472;78;25447;-57
2022/12/05 04:36:53;;;;;;;24.37;13.78;;;;;;;-0.21;90.19;101144.20;1855062;77;25531;-53
2022/12/05 04:39:40;;;;;;;22.52;14.60;;;;;;;-0.21;90.15;101138.87;1821501;78;27445;-53
2022/12/05 04:42:13;;;;;;;20.65;12.95;;;;;;;-0.21;90.12;101139.41;1854900;77;25609;-55
2022/12/05 04:44:45;;;;;;;22.30;14.60;;;;;;;-0.23;89.87;101154.24;1820893;78;25611;-56
2022/12/05 04:47:17;;;;;;;26.97;14.68;;;;;;;-0.24;89.86;101137.17;1854991;77;25587;-53
2022/12/05 04:49:43;;;;;;;21.75;13.65;;;;;;;-0.24;89.95;101137.17;1820971;78;25524;-53
2022/12/05 04:52:11;;;;;;;24.12;14.85;;;;;;;-0.24;89.87;101131.85;1854986;77;27524;-54
2022/12/05 04:54:52;;;;;;;23.30;14.17;;;;;;;-0.26;89.82;101141.38;1821590;78;25589;-57
2022/12/05 04:57:42;;;;;;;22.82;13.88;;;;;;;-0.27;89.80;101136.30;1821494;78;25519;-57
2022/12/05 05:00:11;;;;;;;24.67;13.75;;;;;;;-0.27;89.84;101129.13;1854929;77;25583;-54
2022/12/05 05:02:46;;;;;;;23.12;14.63;;;;;;;-0.27;89.95;101133.11;1821760;78;25641;-54
2022/12/05 05:05:15;;;;;;;21.97;14.15;;;;;;;-0.24;89.93;101128.70;1821485;78;27593;-56
2022/12/05 05:07:46;;;;;;;;;;;;;;;-0.23;89.90;101123.66;1824068;78;25366;-54
2022/12/05 05:10:18;;;;;;;19.20;12.40;;;;;;;-0.23;89.83;101125.52;1855005;77;25504;-56
2022/12/05 05:12:45;;;;;;;20.00;13.62;;;;;;;-0.20;89.86;101130.41;1821495;78;25624;-53
2022/12/05 05:15:11;;;;;;;22.22;14.05;;;;;;;-0.21;89.62;101128.25;1854982;77;25611;-53
2022/12/05 05:17:38;;;;;;;23.90;13.50;;;;;;;-0.24;89.24;101127.38;1821442;78;27372;-52
2022/12/05 05:20:29;;;;;;;19.60;12.75;;;;;;;-0.27;89.31;101129.66;1854761;77;25499;-52
2022/12/05 05:22:56;;;;;;;19.45;13.85;;;;;;;-0.28;89.40;101134.13;1819858;78;25394;-53
2022/12/05 05:25:25;;;;;;;19.62;12.95;;;;;;;-0.31;89.37;101129.77;1854850;77;25461;-53
2022/12/05 05:27:54;;;;;;;23.38;13.15;;;;;;;-0.32;89.38;101131.62;1821475;78;25530;-53
2022/12/05 05:30:23;;;;;;;18.82;12.88;;;;;;;-0.32;89.39;101141.42;1855104;77;27523;-54
2022/12/05 05:32:50;;;;;;;20.10;12.78;;;;;;;-0.32;89.51;101142.75;1821489;78;25441;-53
2022/12/05 05:35:17;;;;;;;21.62;13.15;;;;;;;-0.30;89.58;101146.03;1854945;77;25405;-54
2022/12/05 05:37:43;;;;;;;20.97;13.40;;;;;;;-0.30;89.46;101147.36;1821397;78;25536;-53
2022/12/05 05:40:12;;;;;;;21.12;12.93;;;;;;;-0.30;89.48;101148.16;1854948;77;25540;-55
2022/12/05 05:42:48;;;;;;;20.33;13.27;;;;;;;-0.29;89.46;101144.98;1821692;78;27462;-53
2022/12/05 05:45:15;;;;;;;19.67;13.28;;;;;;;-0.28;89.37;101132.00;1854894;77;25391;-54
2022/12/05 05:47:43;;;;;;;19.87;13.55;;;;;;;-0.31;89.31;101161.14;1821411;78;25421;-56
2022/12/05 05:50:11;;;;;;;21.77;13.55;;;;;;;-0.31;89.29;101148.38;1854907;77;25441;-56
2022/12/05 05:52:37;;;;;;;20.97;13.55;;;;;;;-0.33;89.31;101151.25;1821442;78;25477;-55
2022/12/05 05:55:07;;;;;;;22.73;14.30;;;;;;;-0.32;89.43;101155.55;1854876;77;27513;-56
2022/12/05 05:57:34;;;;;;;21.40;13.62;;;;;;;-0.30;89.37;101161.46;1821338;78;25764;-56
2022/12/05 06:00:06;;;;;;;22.60;13.32;;;;;;;-0.30;89.32;101164.64;1854903;77;25553;-54
2022/12/05 06:02:34;;;;;;;24.45;14.58;;;;;;;-0.30;89.34;101168.11;1821392;78;25591;-57
2022/12/05 06:05:02;;;;;;;24.67;15.13;;;;;;;-0.30;89.42;101170.77;1855220;77;25376;-55
2022/12/05 06:07:29;;;;;;;20.65;14.70;;;;;;;-0.30;89.39;101163.31;1821404;78;27430;-56
2022/12/05 06:09:55;;;;;;;24.55;14.87;;;;;;;-0.28;89.42;101167.38;1854920;77;25954;-53
2022/12/05 06:12:22;;;;;;;21.10;13.85;;;;;;;-0.27;89.46;101170.34;1821455;78;25457;-57
2022/12/05 06:14:49;;;;;;;21.82;13.85;;;;;;;-0.27;89.37;101164.22;1854892;77;25375;-57
2022/12/05 06:17:16;;;;;;;25.05;14.93;;;;;;;-0.25;89.42;101155.50;1821533;78;25523;-59
2022/12/05 06:19:43;;;;;;;23.60;15.10;;;;;;;-0.25;89.42;101156.83;1851892;77;28332;-57
2022/12/05 06:22:09;;;;;;;23.22;14.65;;;;;;;-0.24;89.41;101153.96;1844427;77;25395;-57
2022/12/05 06:24:36;;;;;;;21.12;14.00;;;;;;;-0.20;89.42;101160.98;1844586;77;25462;-56
2022/12/05 06:27:02;;;;;;;22.32;14.33;;;;;;;-0.22;89.34;101156.41;1844511;77;25853;-58
2022/12/05 06:29:28;;;;;;;22.40;13.78;;;;;;;-0.20;89.40;101155.15;1844495;77;25378;-57
2022/12/05 06:31:55;;;;;;;22.40;14.90;;;;;;;-0.17;89.34;101156.58;1844508;77;27481;-58
2022/12/05 06:34:21;;;;;;;24.25;14.40;;;;;;;-0.17;89.28;101147.27;1770231;79;25426;-56
2022/12/05 06:36:47;;;;;;;23.45;14.60;;;;;;;-0.16;89.35;101150.73;1801695;79;25623;-57
2022/12/05 06:39:14;;;;;;;23.00;15.15;;;;;;;-0.15;89.39;101146.53;1801607;79;25651;-57
2022/12/05 06:41:40;;;;;;;24.67;15.08;;;;;;;-0.14;89.28;101141.49;1770406;81;25406;-57
2022/12/05 06:44:09;;;;;;;22.90;15.83;;;;;;;-0.13;89.37;101139.14;1801791;79;27492;-58
2022/12/05 06:46:36;;;;;;;23.73;14.80;;;;;;;-0.12;89.30;101134.63;1801707;79;26196;-59
2022/12/05 06:49:02;;;;;;;27.42;15.53;;;;;;;-0.11;89.19;101139.73;1801682;79;25577;-59
2022/12/05 06:51:28;;;;;;;21.33;14.58;;;;;;;-0.08;89.26;101142.48;1770287;80;25805;-52
2022/12/05 06:53:56;;;;;;;21.68;14.28;;;;;;;-0.07;89.29;101142.27;1801706;79;25572;-57
2022/12/05 06:56:22;;;;;;;26.30;16.30;;;;;;;-0.06;89.13;101145.22;1801656;79;27468;-52
2022/12/05 06:58:51;;;;;;;23.75;15.25;;;;;;;-0.07;89.02;101149.42;1770197;80;25444;-53
2022/12/05 07:01:40;;;;;;;23.67;14.93;;;;;;;-0.07;89.01;101148.92;1801764;79;25446;-55
2022/12/05 07:03:52;;;;;;;24.77;15.28;;;;;;;-0.08;89.04;101155.79;1792492;79;25609;-52
2022/12/05 07:06:18;;;;;;;25.55;15.55;;;;;;;-0.06;89.09;101153.72;1801786;79;25367;-52
2022/12/05 07:08:46;;;;;;;25.20;15.23;;;;;;;-0.08;88.94;101146.48;1801805;79;28250;-52
2022/12/05 07:11:12;;;;;;;25.62;16.12;;;;;;;-0.11;88.97;101146.38;1801720;79;25683;-54
2022/12/05 07:13:39;;;;;;;27.67;16.32;;;;;;;-0.08;89.08;101145.15;1801800;79;25562;-54
2022/12/05 07:16:07;;;;;;;26.55;16.65;;;;;;;-0.10;89.08;101134.72;1801721;79;25546;-55
2022/12/05 07:18:36;;;;;;;22.67;15.32;;;;;;;-0.08;89.22;101132.66;1801801;79;25598;-54
2022/12/05 07:21:11;;;;;;;21.02;11.38;;;;;;;-0.07;89.16;101130.31;1811608;79;27540;-53
2022/12/05 07:23:38;;;;;;;24.02;15.40;;;;;;;-0.06;89.06;101134.58;1792163;80;25534;-51
2022/12/05 07:26:08;;;;;;;28.73;16.85;;;;;;;-0.05;89.12;101142.03;1809722;79;25593;-53
2022/12/05 07:28:35;;;;;;;26.27;16.50;;;;;;;-0.05;89.03;101140.70;1792162;80;25544;-53
2022/12/05 07:31:07;;;;;;;23.40;15.40;;;;;;;-0.05;89.21;101147.35;1809753;79;25551;-52
2022/12/05 07:33:34;;;;;;;22.73;15.03;;;;;;;-0.03;89.15;101147.45;1792263;80;28121;-52
2022/12/05 07:36:05;;;;;;;24.07;15.95;;;;;;;0.01;89.30;101139.84;1809629;79;25533;-52
2022/12/05 07:38:33;;;;;;;29.72;16.65;;;;;;;0.03;89.28;101143.09;1792253;80;25561;-52
2022/12/05 07:41:05;;;;;;;27.55;16.93;;;;;;;0.08;89.34;101141.12;1809670;79;25845;-53
2022/12/05 07:43:32;;;;;;;29.87;17.98;;;;;;;0.11;89.32;101142.83;1792342;79;25573;-53
2022/12/05 07:46:05;;;;;;;24.87;15.78;;;;;;;0.14;89.29;101144.25;1809696;79;27610;-56
2022/12/05 07:48:33;;;;;;;27.77;17.87;;;;;;;0.14;89.00;101138.93;1792208;79;25614;-55
2022/12/05 07:51:02;;;;;;;28.52;17.05;;;;;;;0.11;88.71;101132.70;1809741;79;25618;-52
2022/12/05 07:53:31;;;;;;;29.32;17.87;;;;;;;0.10;88.79;101135.06;1792189;80;25555;-54
2022/12/05 07:56:00;;;;;;;31.57;17.43;;;;;;;0.09;88.80;101132.92;1809970;79;25551;-54
2022/12/05 07:58:32;;;;;;;28.77;17.25;;;;;;;0.10;88.86;101138.55;1792346;79;29537;-52
2022/12/05 08:01:15;;;;;;;25.77;15.90;;;;;;;0.11;88.92;101135.37;1809566;79;25843;-50
2022/12/05 08:03:43;;;;;;;28.47;17.55;;;;;;;0.11;88.79;101132.18;1792251;79;25411;-52
2022/12/05 08:06:15;;;;;;;28.00;16.75;;;;;;;0.11;88.86;101135.37;1809676;79;25555;-52
2022/12/05 08:08:43;;;;;;;27.65;17.32;;;;;;;0.14;88.97;101130.95;1792286;79;25396;-55
2022/12/05 08:11:21;;;;;;;31.20;17.50;;;;;;;0.15;89.00;101125.91;1810046;79;28037;-54
2022/12/05 08:13:49;;;;;;;26.77;17.05;;;;;;;0.16;88.98;101119.03;1791012;80;25288;-52
2022/12/05 08:16:21;;;;;;;28.65;17.35;;;;;;;0.17;88.83;101119.34;1809727;79;25401;-52
2022/12/05 08:18:54;;;;;;;25.32;15.98;;;;;;;0.17;88.75;101118.51;1792172;80;26328;-56
2022/12/05 08:21:26;;;;;;;27.42;16.42;;;;;;;0.15;88.68;101111.27;1834078;77;25608;-55
2022/12/05 08:23:55;;;;;;;25.62;16.65;;;;;;;0.16;88.65;101112.91;1844612;77;27519;-55
2022/12/05 08:26:27;;;;;;;29.40;17.05;;;;;;;0.18;88.83;101118.30;1770437;81;25310;-55
2022/12/05 08:29:02;;;;;;;27.73;16.42;;;;;;;0.18;88.76;101120.15;1769910;80;25625;-55
2022/12/05 08:31:34;;;;;;;26.82;16.75;;;;;;;0.19;88.75;101128.44;1801721;79;25594;-54
2022/12/05 08:34:02;;;;;;;28.23;16.87;;;;;;;0.18;88.71;101120.15;1770417;81;25435;-53
2022/12/05 08:36:31;;;;;;;28.30;16.87;;;;;;;0.18;88.64;101123.61;1801703;79;27571;-51
2022/12/05 08:39:02;;;;;;;26.10;17.30;;;;;;;0.17;88.71;101123.83;1801861;79;25642;-54
2022/12/05 08:41:31;;;;;;;32.03;17.98;;;;;;;0.17;88.83;101124.66;1801714;79;25542;-53
2022/12/05 08:44:04;;;;;;;28.92;17.25;;;;;;;0.19;88.77;101116.47;1801821;79;34897;-51
2022/12/05 08:46:34;;;;;;;27.75;16.82;;;;;;;0.18;88.76;101107.65;1799889;78;25474;-50
2022/12/05 08:49:04;;;;;;;28.38;17.80;;;;;;;0.20;88.82;101118.08;1801741;79;27671;-52
2022/12/05 08:51:31;;;;;;;29.12;17.57;;;;;;;0.19;88.76;101116.47;1801718;79;25585;-52
2022/12/05 08:54:00;;;;;;;31.80;18.00;;;;;;;0.16;88.60;101117.70;1801760;79;25420;-51
2022/12/05 08:56:26;;;;;;;31.87;18.12;;;;;;;0.16;88.74;101115.57;1801808;79;32385;-50
2022/12/05 08:58:55;;;;;;;27.40;17.45;;;;;;;0.20;88.92;101119.93;1801702;79;25479;-50
2022/12/05 09:01:24;;;;;;;30.80;18.48;;;;;;;0.21;88.93;101127.70;1801673;79;27713;-52
2022/12/05 09:03:51;;;;;;;31.00;17.73;;;;;;;0.24;89.01;101121.94;1801642;79;25517;-51
2022/12/05 09:06:22;;;;;;;31.23;18.27;;;;;;;0.25;88.81;101114.77;1801702;79;25450;-54
2022/12/05 09:08:55;;;;;;;33.00;19.15;;;;;;;0.24;88.80;101123.27;1801719;79;25590;-54
2022/12/05 09:11:27;;;;;;;32.15;19.07;;;;;;;0.24;88.76;101123.77;1801606;78;25582;-52
2022/12/05 09:13:59;;;;;;;34.48;19.98;;;;;;;0.26;88.92;101115.08;1801740;79;28098;-51
2022/12/05 09:16:30;;;;;;;31.10;17.90;;;;;;;0.28;88.89;101118.33;1801622;79;25401;-52
2022/12/05 09:18:59;;;;;;;35.45;19.00;;;;;;;0.29;88.72;101111.95;1801785;79;25569;-54
2022/12/05 09:21:29;;;;;;;31.93;18.98;;;;;;;0.31;88.75;101100.59;1799778;78;25551;-50
2022/12/05 09:24:03;;;;;;;33.38;18.90;;;;;;;0.31;88.82;101096.08;1854954;77;25533;-50
2022/12/05 09:26:31;;;;;;;28.85;17.98;;;;;;;0.33;88.76;101093.20;1821428;78;27468;-51
2022/12/05 09:28:57;;;;;;;34.18;19.05;;;;;;;0.33;88.81;101094.52;1854795;77;25576;-50
2022/12/05 09:31:26;;;;;;;32.53;18.90;;;;;;;0.34;88.63;101100.12;1821329;78;25519;-51
2022/12/05 09:33:54;;;;;;;37.03;19.48;;;;;;;0.34;88.64;101085.48;1854998;77;25590;-51
2022/12/05 09:36:26;;;;;;;31.73;19.20;;;;;;;0.31;88.54;101084.09;1821326;78;25522;-50
2022/12/05 09:38:57;;;;;;;33.67;19.70;;;;;;;0.34;88.66;101082.83;1821496;78;27348;-50
2022/12/05 09:45:09;;;;;;;33.33;18.37;;;;;;;0.40;88.94;101075.30;1821339;78;25439;-50
2022/12/05 09:47:46;;;;;;;31.90;18.40;;;;;;;0.40;88.85;101080.63;1821371;78;26120;-50
2022/12/05 09:50:28;;;;;;;33.23;20.10;;;;;;;0.39;88.65;101074.19;1821434;78;25459;-50
2022/12/05 09:53:12;;;;;;;33.20;19.40;;;;;;;0.38;88.71;101066.73;1821435;78;28114;-52
2022/12/05 09:55:52;;;;;;;35.85;19.32;;;;;;;0.43;89.03;101061.55;1821411;78;25612;-52
2022/12/05 09:58:27;;;;;;;34.43;19.77;;;;;;;0.42;88.79;101051.13;1821421;78;25401;-53
2022/12/05 10:01:05;;;;;;;33.67;20.20;;;;;;;0.44;88.75;101049.84;1821338;78;25494;-49
2022/12/05 10:03:46;;;;;;;31.52;18.07;;;;;;;0.45;88.77;101046.16;1791329;78;25749;-50
2022/12/05 10:06:20;;;;;;;32.70;19.45;;;;;;;0.45;88.61;101052.82;1821463;78;27920;-50
2022/12/05 10:09:19;;;;;;;34.63;19.17;;;;;;;0.44;88.62;101044.53;1821319;78;25547;-50
2022/12/05 10:11:54;;;;;;;37.38;20.40;;;;;;;0.47;88.79;101046.75;1821528;78;25524;-50
2022/12/05 10:14:45;;;;;;;35.40;20.30;;;;;;;0.51;89.09;101047.95;1815171;78;25476;-50
2022/12/05 10:17:35;;;;;;;34.85;20.10;;;;;;;0.59;89.11;101043.34;1821469;78;25526;-53
2022/12/05 10:20:16;;;;;;;37.50;20.15;;;;;;;0.63;89.04;101039.19;1751362;81;27583;-52
2022/12/05 10:22:51;;;;;;;32.45;18.90;;;;;;;0.67;88.96;101038.52;1739709;82;26337;-50
2022/12/05 10:25:22;;;;;;;36.03;19.40;;;;;;;0.68;88.67;101034.00;1818883;78;25630;-50
2022/12/05 10:27:53;;;;;;;35.03;20.32;;;;;;;0.69;88.40;101033.78;1819190;78;25549;-52
2022/12/05 10:30:24;;;;;;;36.85;20.68;;;;;;;0.67;88.40;101029.73;1819275;78;25687;-52
2022/12/05 10:33:05;;;;;;;35.88;20.27;;;;;;;0.69;88.32;101027.65;1819115;78;27368;-52
2022/12/05 10:35:39;;;;;;;33.05;19.15;;;;;;;0.70;88.31;101034.09;1792265;78;25616;-54
2022/12/05 10:38:30;;;;;;;35.60;19.65;;;;;;;0.67;88.02;101031.06;1819167;78;25580;-50
2022/12/05 10:41:02;;;;;;;33.45;19.52;;;;;;;0.65;88.11;101035.80;1819094;78;25659;-51
2022/12/05 10:43:32;;;;;;;35.50;20.57;;;;;;;0.69;88.31;101039.63;1819073;78;25641;-52
2022/12/05 10:46:02;;;;;;;33.23;20.12;;;;;;;0.68;88.26;101037.50;1819345;78;27555;-51
2022/12/05 10:48:36;;;;;;;39.58;21.25;;;;;;;0.69;88.24;101029.78;1819164;78;25750;-51
2022/12/05 10:51:05;;;;;;;36.53;20.20;;;;;;;0.71;88.35;101022.38;1819431;78;25635;-49
2022/12/05 10:53:40;;;;;;;;;;;;;;;0.72;88.16;101024.02;1836681;75;25695;-52
2022/12/05 10:56:44;;;;;;;34.23;19.60;;;;;;;0.74;88.11;101012.61;1894284;75;25559;-53
2022/12/05 10:59:19;;;;;;;38.73;20.72;;;;;;;0.71;87.83;101021.58;1892639;75;27566;-53
2022/12/05 11:01:53;;;;;;;37.23;20.55;;;;;;;0.65;87.70;101013.98;1893592;75;25547;-51
2022/12/05 11:04:31;;;;;;;38.80;20.30;;;;;;;0.62;87.94;101009.09;1821528;78;25391;-51
2022/12/05 11:07:01;;;;;;;38.75;21.02;;;;;;;0.66;87.98;101012.12;1821466;78;25521;-51
2022/12/05 11:09:35;;;;;;;40.73;21.77;;;;;;;0.62;87.81;101014.95;1821499;78;25403;-53
2022/12/05 11:12:15;;;;;;;40.40;20.68;;;;;;;0.60;87.91;101002.38;1853660;77;27609;-51
2022/12/05 11:14:59;;;;;;;42.10;23.50;;;;;;;0.60;88.08;101005.05;1821435;78;25790;-51
2022/12/05 11:17:36;;;;;;;40.20;21.48;;;;;;;0.60;88.16;101008.52;1819615;78;25522;-52
2022/12/05 11:20:23;;;;;;;37.10;20.75;;;;;;;0.62;88.15;101009.09;1821457;78;25553;-52
2022/12/05 11:22:55;;;;;;;39.63;22.07;;;;;;;0.60;88.06;100999.72;1785757;78;25564;-52
2022/12/05 11:25:32;;;;;;;38.28;20.05;;;;;;;0.59;88.15;100990.90;1805183;79;27372;-52
2022/12/05 11:28:20;;;;;;;40.05;22.52;;;;;;;0.60;88.10;100993.88;1805042;79;25433;-54
2022/12/05 11:31:04;;;;;;;38.02;20.48;;;;;;;0.59;88.07;100982.11;1805128;79;25549;-51
2022/12/05 11:33:37;;;;;;;38.00;21.30;;;;;;;0.55;88.03;100977.76;1805098;79;25630;-52
2022/12/05 11:36:21;;;;;;;37.78;20.68;;;;;;;0.55;88.24;100976.42;1805160;79;25403;-52
2022/12/05 11:38:48;;;;;;;41.58;22.95;;;;;;;0.56;88.24;100972.70;1805147;79;28235;-53
2022/12/05 11:41:45;;;;;;;38.38;21.97;;;;;;;0.60;88.76;100965.11;1805012;79;25463;-51
2022/12/05 11:44:26;;;;;;;38.75;20.65;;;;;;;0.64;88.63;100959.61;1805153;79;25449;-50
2022/12/05 11:47:07;;;;;;;37.75;20.43;;;;;;;0.67;88.54;100958.64;1805130;79;25509;-57
2022/12/05 11:50:01;;;;;;;37.58;20.37;;;;;;;0.67;88.29;100947.19;1805301;79;25462;-53
2022/12/05 11:53:11;;;;;;;36.77;20.90;;;;;;;0.68;88.37;100958.11;1793529;79;28044;-52
2022/12/05 11:56:10;;;;;;;36.73;20.65;;;;;;;0.69;88.28;100953.09;1805021;79;26045;-52
2022/12/05 11:58:55;;;;;;;39.25;21.57;;;;;;;0.68;88.19;100944.80;1805133;79;25400;-56